sensor_id;sensor_type;location;lat;lon;timestamp;pressure;altitude;pressure_sealevel;temperature;humidity
17781;BME280;8498;52.516;13.790;2023-04-20T00:03:58;101552.03;;;8.15;100.00
17781;BME280;8498;52.516;13.790;2023-04-20T00:09:21;101559.91;;;8.16;100.00
17781;BME280;8498;52.516;13.790;2023-04-20T00:14:44;101564.41;;;8.14;100.00
17781;BME280;8498;52.516;13.790;2023-04-20T00:20:06;101562.81;;;8.10;100.00
17781;BME280;8498;52.516;13.790;2023-04-20T00:25:31;101564.63;;;8.09;100.00
17781;BME280;8498;52.516;13.790;2023-04-20T00:30:53;101567.47;;;8.05;100.00
17781;BME280;8498;52.516;13.790;2023-04-20T00:36:15;101562.09;;;8.06;100.00
17781;BME280;8498;52.516;13.790;2023-04-20T00:41:38;101549.72;;;8.07;100.00
17781;BME280;8498;52.516;13.790;2023-04-20T00:47:00;101546.91;;;8.10;100.00
17781;BME280;8498;52.516;13.790;2023-04-20T00:52:23;101541.56;;;8.11;100.00
17781;BME280;8498;52.516;13.790;2023-04-20T00:57:45;101541.56;;;8.11;100.00
17781;BME280;8498;52.516;13.790;2023-04-20T01:03:08;101551.28;;;8.11;100.00
17781;BME280;8498;52.516;13.790;2023-04-20T01:08:30;101552.94;;;8.14;100.00
17781;BME280;8498;52.516;13.790;2023-04-20T01:13:53;101551.91;;;8.18;100.00
17781;BME280;8498;52.516;13.790;2023-04-20T01:19:15;101540.47;;;8.17;100.00
17781;BME280;8498;52.516;13.790;2023-04-20T01:24:38;101536.94;;;8.17;100.00
17781;BME280;8498;52.516;13.790;2023-04-20T01:30:00;101536.16;;;8.15;100.00
17781;BME280;8498;52.516;13.790;2023-04-20T01:35:24;101536.88;;;8.18;100.00
17781;BME280;8498;52.516;13.790;2023-04-20T01:40:46;101537.75;;;8.19;100.00
17781;BME280;8498;52.516;13.790;2023-04-20T01:46:08;101533.78;;;8.08;100.00
17781;BME280;8498;52.516;13.790;2023-04-20T01:51:32;101536.03;;;8.18;100.00
17781;BME280;8498;52.516;13.790;2023-04-20T01:56:55;101539.59;;;8.17;100.00
17781;BME280;8498;52.516;13.790;2023-04-20T02:02:17;101528.59;;;8.26;100.00
17781;BME280;8498;52.516;13.790;2023-04-20T02:07:39;101532.91;;;8.28;100.00
17781;BME280;8498;52.516;13.790;2023-04-20T02:13:02;101541.03;;;8.24;100.00
17781;BME280;8498;52.516;13.790;2023-04-20T02:18:25;101530.31;;;8.27;100.00
17781;BME280;8498;52.516;13.790;2023-04-20T02:23:48;101543.56;;;8.27;100.00
17781;BME280;8498;52.516;13.790;2023-04-20T02:29:11;101543.91;;;8.19;100.00
17781;BME280;8498;52.516;13.790;2023-04-20T02:34:33;101539.31;;;8.23;100.00
17781;BME280;8498;52.516;13.790;2023-04-20T02:39:55;101532.03;;;8.28;100.00
17781;BME280;8498;52.516;13.790;2023-04-20T02:45:20;101540.16;;;8.23;100.00
17781;BME280;8498;52.516;13.790;2023-04-20T02:50:42;101536.03;;;8.18;100.00
17781;BME280;8498;52.516;13.790;2023-04-20T02:56:10;101535.22;;;8.16;100.00
17781;BME280;8498;52.516;13.790;2023-04-20T03:01:38;101531.78;;;8.14;100.00
17781;BME280;8498;52.516;13.790;2023-04-20T03:07:08;101533.50;;;8.15;100.00
17781;BME280;8498;52.516;13.790;2023-04-20T03:12:32;101540.72;;;8.11;100.00
17781;BME280;8498;52.516;13.790;2023-04-20T03:18:18;101538.16;;;8.09;100.00
17781;BME280;8498;52.516;13.790;2023-04-20T03:23:41;101548.47;;;8.16;100.00
17781;BME280;8498;52.516;13.790;2023-04-20T03:29:03;101550.88;;;8.20;100.00
17781;BME280;8498;52.516;13.790;2023-04-20T03:34:26;101541.88;;;8.24;100.00
17781;BME280;8498;52.516;13.790;2023-04-20T03:39:49;101538.59;;;8.19;100.00
17781;BME280;8498;52.516;13.790;2023-04-20T03:45:11;101542.81;;;8.23;100.00
17781;BME280;8498;52.516;13.790;2023-04-20T03:50:34;101555.06;;;8.26;100.00
17781;BME280;8498;52.516;13.790;2023-04-20T03:55:56;101549.63;;;8.29;100.00
17781;BME280;8498;52.516;13.790;2023-04-20T04:01:20;101553.94;;;8.31;100.00
17781;BME280;8498;52.516;13.790;2023-04-20T04:06:43;101545.81;;;8.36;100.00
17781;BME280;8498;52.516;13.790;2023-04-20T04:12:06;101556.41;;;8.36;100.00
17781;BME280;8498;52.516;13.790;2023-04-20T04:17:28;101564.34;;;8.36;100.00
17781;BME280;8498;52.516;13.790;2023-04-20T04:22:51;101566.19;;;8.34;100.00
17781;BME280;8498;52.516;13.790;2023-04-20T04:28:36;101565.41;;;8.32;100.00
17781;BME280;8498;52.516;13.790;2023-04-20T04:34:06;101565.16;;;8.38;100.00
17781;BME280;8498;52.516;13.790;2023-04-20T04:39:34;101568.38;;;8.44;100.00
17781;BME280;8498;52.516;13.790;2023-04-20T04:45:05;101578.75;;;8.49;100.00
17781;BME280;8498;52.516;13.790;2023-04-20T04:50:31;101589.19;;;8.52;100.00
17781;BME280;8498;52.516;13.790;2023-04-20T04:55:53;101575.69;;;8.58;100.00
17781;BME280;8498;52.516;13.790;2023-04-20T05:01:16;101577.25;;;8.62;100.00
17781;BME280;8498;52.516;13.790;2023-04-20T05:06:38;101576.06;;;8.69;100.00
17781;BME280;8498;52.516;13.790;2023-04-20T05:12:01;101582.06;;;8.73;100.00
17781;BME280;8498;52.516;13.790;2023-04-20T05:17:24;101591.91;;;8.71;100.00
17781;BME280;8498;52.516;13.790;2023-04-20T05:22:46;101577.78;;;8.70;100.00
17781;BME280;8498;52.516;13.790;2023-04-20T05:28:08;101582.59;;;8.81;100.00
17781;BME280;8498;52.516;13.790;2023-04-20T05:33:31;101604.47;;;8.84;100.00
17781;BME280;8498;52.516;13.790;2023-04-20T05:38:53;101596.53;;;8.84;100.00
17781;BME280;8498;52.516;13.790;2023-04-20T05:44:16;101607.78;;;8.90;100.00
17781;BME280;8498;52.516;13.790;2023-04-20T05:49:38;101616.44;;;8.93;100.00
17781;BME280;8498;52.516;13.790;2023-04-20T05:55:01;101608.28;;;8.98;100.00
17781;BME280;8498;52.516;13.790;2023-04-20T06:00:25;101613.28;;;9.04;100.00
17781;BME280;8498;52.516;13.790;2023-04-20T06:05:47;101616.59;;;9.09;100.00
17781;BME280;8498;52.516;13.790;2023-04-20T06:11:10;101613.88;;;9.10;99.73
17781;BME280;8498;52.516;13.790;2023-04-20T06:16:32;101632.50;;;9.09;99.85
17781;BME280;8498;52.516;13.790;2023-04-20T06:21:56;101635.72;;;9.15;99.90
17781;BME280;8498;52.516;13.790;2023-04-20T06:27:21;101636.38;;;9.20;99.52
17781;BME280;8498;52.516;13.790;2023-04-20T06:32:44;101630.84;;;9.25;99.15
17781;BME280;8498;52.516;13.790;2023-04-20T06:38:06;101638.06;;;9.40;99.20
17781;BME280;8498;52.516;13.790;2023-04-20T06:43:29;101626.41;;;9.44;98.53
17781;BME280;8498;52.516;13.790;2023-04-20T06:48:52;101624.50;;;9.46;98.04
17781;BME280;8498;52.516;13.790;2023-04-20T06:54:14;101632.59;;;9.62;98.00
17781;BME280;8498;52.516;13.790;2023-04-20T06:59:37;101634.03;;;9.86;97.43
17781;BME280;8498;52.516;13.790;2023-04-20T07:04:59;101630.97;;;9.77;96.01
17781;BME280;8498;52.516;13.790;2023-04-20T07:10:23;101634.41;;;9.79;95.62
17781;BME280;8498;52.516;13.790;2023-04-20T07:15:46;101632.59;;;9.62;94.76
17781;BME280;8498;52.516;13.790;2023-04-20T07:21:08;101642.75;;;9.88;94.74
17781;BME280;8498;52.516;13.790;2023-04-20T07:26:30;101647.78;;;10.12;93.63
17781;BME280;8498;52.516;13.790;2023-04-20T07:31:53;101652.84;;;9.99;92.69
17781;BME280;8498;52.516;13.790;2023-04-20T07:37:15;101655.03;;;10.08;93.59
17781;BME280;8498;52.516;13.790;2023-04-20T07:42:38;101660.69;;;10.19;92.89
17781;BME280;8498;52.516;13.790;2023-04-20T07:48:01;101661.47;;;10.04;92.56
17781;BME280;8498;52.516;13.790;2023-04-20T07:53:24;101659.41;;;10.09;93.29
17781;BME280;8498;52.516;13.790;2023-04-20T07:58:46;101661.72;;;10.17;93.60
17781;BME280;8498;52.516;13.790;2023-04-20T08:04:09;101668.72;;;10.18;93.32
17781;BME280;8498;52.516;13.790;2023-04-20T08:09:32;101671.75;;;10.10;94.63
17781;BME280;8498;52.516;13.790;2023-04-20T08:14:54;101668.63;;;10.02;95.15
17781;BME280;8498;52.516;13.790;2023-04-20T08:20:21;101674.78;;;9.85;96.32
17781;BME280;8498;52.516;13.790;2023-04-20T08:25:43;101672.38;;;9.98;96.47
17781;BME280;8498;52.516;13.790;2023-04-20T08:31:06;101677.06;;;10.10;96.92
17781;BME280;8498;52.516;13.790;2023-04-20T08:36:28;101675.66;;;10.03;97.36
17781;BME280;8498;52.516;13.790;2023-04-20T08:41:50;101681.16;;;9.81;97.37
17781;BME280;8498;52.516;13.790;2023-04-20T08:47:16;101693.25;;;9.87;98.22
17781;BME280;8498;52.516;13.790;2023-04-20T08:52:39;101691.34;;;9.90;98.03
17781;BME280;8498;52.516;13.790;2023-04-20T08:58:01;101693.31;;;10.04;97.97
17781;BME280;8498;52.516;13.790;2023-04-20T09:08:56;101680.06;;;10.21;97.62
17781;BME280;8498;52.516;13.790;2023-04-20T09:14:18;101672.41;;;10.33;96.96
17781;BME280;8498;52.516;13.790;2023-04-20T09:19:51;101671.16;;;10.57;97.31
17781;BME280;8498;52.516;13.790;2023-04-20T09:25:17;101671.25;;;10.88;96.69
17781;BME280;8498;52.516;13.790;2023-04-20T09:30:45;101673.84;;;10.90;93.96
17781;BME280;8498;52.516;13.790;2023-04-20T09:36:08;101676.44;;;11.23;94.04
17781;BME280;8498;52.516;13.790;2023-04-20T09:41:33;101672.69;;;11.43;92.35
17781;BME280;8498;52.516;13.790;2023-04-20T09:46:57;101676.72;;;11.65;91.50
17781;BME280;8498;52.516;13.790;2023-04-20T09:52:20;101664.63;;;11.75;90.55
17781;BME280;8498;52.516;13.790;2023-04-20T09:57:43;101655.66;;;12.52;89.22
17781;BME280;8498;52.516;13.790;2023-04-20T10:03:07;101643.47;;;12.91;88.03
17781;BME280;8498;52.516;13.790;2023-04-20T10:08:40;101644.41;;;12.90;85.44
17781;BME280;8498;52.516;13.790;2023-04-20T10:14:23;101625.16;;;12.99;84.71
17781;BME280;8498;52.516;13.790;2023-04-20T10:19:46;101618.22;;;13.78;80.51
17781;BME280;8498;52.516;13.790;2023-04-20T10:25:16;101613.53;;;13.82;81.27
17781;BME280;8498;52.516;13.790;2023-04-20T10:30:49;101627.00;;;13.80;81.74
17781;BME280;8498;52.516;13.790;2023-04-20T10:36:21;101622.00;;;13.62;80.31
17781;BME280;8498;52.516;13.790;2023-04-20T10:41:56;101616.66;;;13.88;80.77
17781;BME280;8498;52.516;13.790;2023-04-20T10:47:30;101611.44;;;14.12;79.65
17781;BME280;8498;52.516;13.790;2023-04-20T10:52:53;101619.13;;;14.56;78.70
17781;BME280;8498;52.516;13.790;2023-04-20T10:58:22;101621.38;;;14.62;78.80
17781;BME280;8498;52.516;13.790;2023-04-20T11:03:49;101617.06;;;14.22;78.13
17781;BME280;8498;52.516;13.790;2023-04-20T11:09:22;101599.94;;;14.12;79.97
17781;BME280;8498;52.516;13.790;2023-04-20T11:14:56;101589.69;;;14.31;80.66
17781;BME280;8498;52.516;13.790;2023-04-20T11:20:24;101597.47;;;14.34;79.25
17781;BME280;8498;52.516;13.790;2023-04-20T11:25:56;101595.47;;;15.25;74.93
17781;BME280;8498;52.516;13.790;2023-04-20T11:31:19;101584.06;;;15.10;72.92
17781;BME280;8498;52.516;13.790;2023-04-20T11:36:41;101585.31;;;15.89;72.00
17781;BME280;8498;52.516;13.790;2023-04-20T11:42:05;101575.56;;;16.34;68.29
17781;BME280;8498;52.516;13.790;2023-04-20T11:47:27;101578.66;;;17.07;67.32
17781;BME280;8498;52.516;13.790;2023-04-20T11:52:50;101576.88;;;17.40;66.20
17781;BME280;8498;52.516;13.790;2023-04-20T11:58:12;101578.50;;;17.74;66.38
17781;BME280;8498;52.516;13.790;2023-04-20T12:03:35;101568.94;;;18.23;62.12
17781;BME280;8498;52.516;13.790;2023-04-20T12:08:59;101563.28;;;18.47;61.93
17781;BME280;8498;52.516;13.790;2023-04-20T12:14:22;101561.75;;;18.03;60.60
17781;BME280;8498;52.516;13.790;2023-04-20T12:19:44;101551.09;;;17.48;62.29
17781;BME280;8498;52.516;13.790;2023-04-20T12:25:07;101540.59;;;17.77;61.23
17781;BME280;8498;52.516;13.790;2023-04-20T12:30:29;101537.78;;;17.47;61.62
17781;BME280;8498;52.516;13.790;2023-04-20T12:35:52;101531.09;;;17.41;64.60
17781;BME280;8498;52.516;13.790;2023-04-20T12:41:14;101515.53;;;18.49;60.36
17781;BME280;8498;52.516;13.790;2023-04-20T12:46:37;101514.41;;;19.41;57.36
17781;BME280;8498;52.516;13.790;2023-04-20T12:52:00;101517.69;;;19.54;55.29
17781;BME280;8498;52.516;13.790;2023-04-20T12:57:22;101502.94;;;19.58;56.17
17781;BME280;8498;52.516;13.790;2023-04-20T13:02:45;101503.31;;;19.73;53.39
17781;BME280;8498;52.516;13.790;2023-04-20T13:08:07;101503.88;;;19.96;53.68
17781;BME280;8498;52.516;13.790;2023-04-20T13:13:30;101482.91;;;19.80;52.95
17781;BME280;8498;52.516;13.790;2023-04-20T13:18:52;101490.78;;;20.10;52.28
17781;BME280;8498;52.516;13.790;2023-04-20T13:24:14;101485.97;;;20.14;50.50
17781;BME280;8498;52.516;13.790;2023-04-20T13:29:37;101482.88;;;19.32;52.66
17781;BME280;8498;52.516;13.790;2023-04-20T13:35:01;101473.19;;;20.06;51.26
17781;BME280;8498;52.516;13.790;2023-04-20T13:40:23;101474.38;;;19.85;52.01
17781;BME280;8498;52.516;13.790;2023-04-20T13:45:47;101465.91;;;19.60;51.83
17781;BME280;8498;52.516;13.790;2023-04-20T13:51:09;101461.47;;;20.35;50.86
17781;BME280;8498;52.516;13.790;2023-04-20T13:56:33;101455.63;;;20.30;49.69
17781;BME280;8498;52.516;13.790;2023-04-20T14:01:55;101454.53;;;20.60;47.93
17781;BME280;8498;52.516;13.790;2023-04-20T14:07:17;101451.84;;;19.57;49.79
17781;BME280;8498;52.516;13.790;2023-04-20T14:12:40;101445.47;;;19.10;51.32
17781;BME280;8498;52.516;13.790;2023-04-20T14:18:02;101444.41;;;18.72;52.56
17781;BME280;8498;52.516;13.790;2023-04-20T14:23:25;101437.16;;;18.63;54.11
17781;BME280;8498;52.516;13.790;2023-04-20T14:28:47;101441.13;;;19.94;51.00
17781;BME280;8498;52.516;13.790;2023-04-20T14:34:10;101437.81;;;20.46;48.62
17781;BME280;8498;52.516;13.790;2023-04-20T14:39:34;101437.75;;;19.92;49.55
17781;BME280;8498;52.516;13.790;2023-04-20T14:44:56;101434.84;;;19.18;50.31
17781;BME280;8498;52.516;13.790;2023-04-20T14:50:19;101429.00;;;19.13;51.87
17781;BME280;8498;52.516;13.790;2023-04-20T14:55:41;101429.25;;;19.77;50.51
17781;BME280;8498;52.516;13.790;2023-04-20T15:01:04;101419.41;;;20.32;49.33
17781;BME280;8498;52.516;13.790;2023-04-20T15:06:27;101430.72;;;19.71;50.73
17781;BME280;8498;52.516;13.790;2023-04-20T15:11:49;101415.53;;;19.32;51.21
17781;BME280;8498;52.516;13.790;2023-04-20T15:17:12;101421.06;;;18.82;52.34
17781;BME280;8498;52.516;13.790;2023-04-20T15:22:36;101424.19;;;18.87;52.86
17781;BME280;8498;52.516;13.790;2023-04-20T15:27:58;101425.63;;;19.20;52.02
17781;BME280;8498;52.516;13.790;2023-04-20T15:33:20;101410.59;;;19.18;52.63
17781;BME280;8498;52.516;13.790;2023-04-20T15:38:43;101407.16;;;19.35;52.59
17781;BME280;8498;52.516;13.790;2023-04-20T15:44:05;101410.59;;;19.08;52.60
17781;BME280;8498;52.516;13.790;2023-04-20T15:49:28;101411.16;;;19.12;52.95
17781;BME280;8498;52.516;13.790;2023-04-20T15:54:50;101414.53;;;18.75;53.30
17781;BME280;8498;52.516;13.790;2023-04-20T16:00:13;101405.75;;;18.73;54.01
17781;BME280;8498;52.516;13.790;2023-04-20T16:05:36;101405.41;;;18.57;55.06
17781;BME280;8498;52.516;13.790;2023-04-20T16:10:58;101399.19;;;18.56;55.22
17781;BME280;8498;52.516;13.790;2023-04-20T16:16:20;101401.59;;;18.59;54.16
17781;BME280;8498;52.516;13.790;2023-04-20T16:21:43;101400.66;;;18.40;54.82
17781;BME280;8498;52.516;13.790;2023-04-20T16:27:06;101406.66;;;18.03;55.88
17781;BME280;8498;52.516;13.790;2023-04-20T16:32:28;101408.53;;;17.82;56.68
17781;BME280;8498;52.516;13.790;2023-04-20T16:37:51;101420.88;;;17.64;57.81
17781;BME280;8498;52.516;13.790;2023-04-20T16:43:13;101413.88;;;17.40;59.12
17781;BME280;8498;52.516;13.790;2023-04-20T16:48:35;101417.34;;;17.31;60.07
17781;BME280;8498;52.516;13.790;2023-04-20T16:53:58;101414.25;;;17.36;60.66
17781;BME280;8498;52.516;13.790;2023-04-20T16:59:23;101420.50;;;17.36;61.18
17781;BME280;8498;52.516;13.790;2023-04-20T17:04:46;101414.19;;;17.26;60.56
17781;BME280;8498;52.516;13.790;2023-04-20T17:10:08;101417.84;;;17.25;59.90
17781;BME280;8498;52.516;13.790;2023-04-20T17:15:30;101418.63;;;17.16;60.52
17781;BME280;8498;52.516;13.790;2023-04-20T17:20:54;101419.53;;;17.05;61.52
17781;BME280;8498;52.516;13.790;2023-04-20T17:26:18;101430.44;;;16.93;62.47
17781;BME280;8498;52.516;13.790;2023-04-20T17:31:40;101434.50;;;16.76;62.81
17781;BME280;8498;52.516;13.790;2023-04-20T17:37:03;101434.41;;;16.66;63.19
17781;BME280;8498;52.516;13.790;2023-04-20T17:42:25;101428.53;;;16.61;63.77
17781;BME280;8498;52.516;13.790;2023-04-20T17:47:47;101434.66;;;16.41;64.77
17781;BME280;8498;52.516;13.790;2023-04-20T17:53:10;101434.53;;;16.31;65.35
17781;BME280;8498;52.516;13.790;2023-04-20T17:58:33;101438.59;;;16.14;66.45
17781;BME280;8498;52.516;13.790;2023-04-20T18:03:55;101448.44;;;15.92;67.66
17781;BME280;8498;52.516;13.790;2023-04-20T18:09:18;101456.81;;;15.76;68.80
17781;BME280;8498;52.516;13.790;2023-04-20T18:14:40;101454.34;;;15.62;69.54
17781;BME280;8498;52.516;13.790;2023-04-20T18:20:04;101475.47;;;15.54;69.64
17781;BME280;8498;52.516;13.790;2023-04-20T18:25:26;101470.56;;;15.48;69.82
17781;BME280;8498;52.516;13.790;2023-04-20T18:30:49;101467.19;;;15.46;69.67
17781;BME280;8498;52.516;13.790;2023-04-20T18:36:11;101478.81;;;15.33;70.14
17781;BME280;8498;52.516;13.790;2023-04-20T18:41:35;101476.09;;;15.22;70.33
17781;BME280;8498;52.516;13.790;2023-04-20T18:46:58;101477.53;;;15.15;70.52
17781;BME280;8498;52.516;13.790;2023-04-20T18:52:21;101473.59;;;15.08;70.74
17781;BME280;8498;52.516;13.790;2023-04-20T18:57:43;101478.16;;;14.95;71.15
17781;BME280;8498;52.516;13.790;2023-04-20T19:03:06;101463.84;;;14.83;71.43
17781;BME280;8498;52.516;13.790;2023-04-20T19:08:29;101470.59;;;14.76;71.72
17781;BME280;8498;52.516;13.790;2023-04-20T19:13:52;101476.13;;;14.62;72.10
17781;BME280;8498;52.516;13.790;2023-04-20T19:19:14;101480.84;;;14.46;72.87
17781;BME280;8498;52.516;13.790;2023-04-20T19:24:37;101473.34;;;14.25;73.92
17781;BME280;8498;52.516;13.790;2023-04-20T19:29:59;101477.03;;;14.12;74.69
17781;BME280;8498;52.516;13.790;2023-04-20T19:35:21;101480.19;;;13.91;76.08
17781;BME280;8498;52.516;13.790;2023-04-20T19:40:45;101480.00;;;13.69;77.48
17781;BME280;8498;52.516;13.790;2023-04-20T19:46:08;101474.50;;;13.45;78.49
17781;BME280;8498;52.516;13.790;2023-04-20T19:51:31;101474.47;;;13.33;78.97
17781;BME280;8498;52.516;13.790;2023-04-20T19:56:54;101472.41;;;13.23;79.74
17781;BME280;8498;52.516;13.790;2023-04-20T20:02:17;101479.78;;;13.06;80.52
17781;BME280;8498;52.516;13.790;2023-04-20T20:07:42;101478.72;;;13.08;81.08
17781;BME280;8498;52.516;13.790;2023-04-20T20:13:04;101479.66;;;13.21;80.42
17781;BME280;8498;52.516;13.790;2023-04-20T20:18:27;101484.03;;;13.22;80.43
17781;BME280;8498;52.516;13.790;2023-04-20T20:23:49;101480.75;;;13.32;79.86
17781;BME280;8498;52.516;13.790;2023-04-20T20:29:12;101484.88;;;13.23;79.93
17781;BME280;8498;52.516;13.790;2023-04-20T20:34:34;101487.47;;;13.10;80.12
17781;BME280;8498;52.516;13.790;2023-04-20T20:39:57;101485.31;;;13.03;80.38
17781;BME280;8498;52.516;13.790;2023-04-20T20:45:20;101488.59;;;12.94;81.14
17781;BME280;8498;52.516;13.790;2023-04-20T20:50:44;101488.88;;;12.89;81.26
17781;BME280;8498;52.516;13.790;2023-04-20T20:56:06;101480.75;;;13.05;80.82
17781;BME280;8498;52.516;13.790;2023-04-20T21:01:29;101482.53;;;13.18;79.49
17781;BME280;8498;52.516;13.790;2023-04-20T21:06:51;101490.78;;;13.28;78.89
17781;BME280;8498;52.516;13.790;2023-04-20T21:12:14;101492.41;;;13.43;77.88
17781;BME280;8498;52.516;13.790;2023-04-20T21:17:36;101499.34;;;13.33;77.74
17781;BME280;8498;52.516;13.790;2023-04-20T21:22:58;101490.28;;;13.36;77.49
17781;BME280;8498;52.516;13.790;2023-04-20T21:28:21;101493.56;;;13.27;77.69
17781;BME280;8498;52.516;13.790;2023-04-20T21:33:44;101492.28;;;13.32;77.38
17781;BME280;8498;52.516;13.790;2023-04-20T21:39:06;101491.66;;;13.29;77.12
17781;BME280;8498;52.516;13.790;2023-04-20T21:44:28;101487.47;;;13.25;76.86
17781;BME280;8498;52.516;13.790;2023-04-20T21:49:51;101497.19;;;13.26;76.71
17781;BME280;8498;52.516;13.790;2023-04-20T21:55:13;101492.03;;;13.22;76.77
17781;BME280;8498;52.516;13.790;2023-04-20T22:00:36;101492.38;;;13.18;76.98
17781;BME280;8498;52.516;13.790;2023-04-20T22:05:58;101501.56;;;13.27;76.51
17781;BME280;8498;52.516;13.790;2023-04-20T22:11:20;101495.84;;;13.18;76.87
17781;BME280;8498;52.516;13.790;2023-04-20T22:16:43;101492.63;;;13.13;77.10
17781;BME280;8498;52.516;13.790;2023-04-20T22:22:05;101502.53;;;13.11;77.49
17781;BME280;8498;52.516;13.790;2023-04-20T22:27:27;101509.50;;;13.14;77.21
17781;BME280;8498;52.516;13.790;2023-04-20T22:32:51;101507.31;;;13.06;77.24
17781;BME280;8498;52.516;13.790;2023-04-20T22:38:13;101509.63;;;12.98;77.81
17781;BME280;8498;52.516;13.790;2023-04-20T22:43:36;101502.97;;;12.91;77.92
17781;BME280;8498;52.516;13.790;2023-04-20T22:48:59;101503.75;;;12.93;77.80
17781;BME280;8498;52.516;13.790;2023-04-20T22:54:23;101505.84;;;12.88;77.86
17781;BME280;8498;52.516;13.790;2023-04-20T22:59:45;101508.72;;;12.85;77.84
17781;BME280;8498;52.516;13.790;2023-04-20T23:05:10;101505.88;;;12.74;78.35
17781;BME280;8498;52.516;13.790;2023-04-20T23:10:32;101510.28;;;12.61;78.68
17781;BME280;8498;52.516;13.790;2023-04-20T23:15:55;101514.66;;;12.47;79.26
17781;BME280;8498;52.516;13.790;2023-04-20T23:21:18;101517.53;;;12.30;79.57
17781;BME280;8498;52.516;13.790;2023-04-20T23:26:40;101517.72;;;12.13;80.83
17781;BME280;8498;52.516;13.790;2023-04-20T23:32:03;101515.19;;;11.96;81.63
17781;BME280;8498;52.516;13.790;2023-04-20T23:37:25;101518.97;;;11.77;82.25
17781;BME280;8498;52.516;13.790;2023-04-20T23:42:48;101516.25;;;11.63;83.04
17781;BME280;8498;52.516;13.790;2023-04-20T23:48:10;101515.59;;;11.60;83.21
17781;BME280;8498;52.516;13.790;2023-04-20T23:53:36;101516.56;;;11.43;83.75
17781;BME280;8498;52.516;13.790;2023-04-20T23:59:00;101517.06;;;11.20;84.69
